EHGG

Eelde Airport

Groningen, The Netherlands
TAF EHGG 171120Z 1712/1818 29006KT 9999 SCT040 PROB30 1800/1804 6000 MIFG BECMG 1807/1810 23014KT
Issued Valid From Valid To
Aug-17 @ 11:20 UTC
(4 hours ago)
Aug-17 @ 12:00 UTC
(3 hours ago)
Aug-18 @ 18:00 UTC
(-1 days ago)
Aug-17 @ 12:00 to Aug-18 @ 07:00
TAF EHGG 171120Z 1712/1818 29006KT 9999 SCT040
Wind Visibility Clouds
290° at 6 knots 10,000+ meters
  • Scattered at 4,000' AGL
Probable  (Probability 30%) Aug-18 @ 00:00 to Aug-18 @ 04:00
PROB30 1800/1804 6000 MIFG
Visibility Conditions
6,003 meters
  • Shallow
  • Fog
Becoming Aug-18 @ 07:00 to Aug-18 @ 18:00
BECMG 1807/1810 23014KT
Wind Visibility Clouds
230° at 14 knots 10,000+ meters
  • Scattered at 4,000' AGL
TAF EHGG 171120Z 1712/1818 29006KT 9999 SCT040 PROB30 1800/1804 6000 MIFG BECMG 1807/1810 23014KT
Issued Aug-17 @ 11:20 UTC
(4 hours ago)
Valid From Aug-17 @ 12:00 UTC
(3 hours ago)
Valid To Aug-18 @ 18:00 UTC
(-1 days ago)
Aug-17 @ 12:00 - Aug-18 @ 07:00
Wind Visibility
290° at 6 knots 10,000+ meters
Clouds
  • Scattered at 4,000' AGL
Probability 30% Probable Aug-18 @ 00:00 - Aug-18 @ 04:00
Conditions
  • Shallow
  • Fog
Becoming Aug-18 @ 07:00 - Aug-18 @ 18:00
Wind Visibility
230° at 14 knots 10,000+ meters
Clouds
  • Scattered at 4,000' AGL